sensor_id;sensor_type;location;lat;lon;timestamp;P1;durP1;ratioP1;P2;durP2;ratioP2
17363;SDS011;8799;43.594;13.526;2022-08-21T00:00:59;6.70;;;3.10;;
17363;SDS011;8799;43.594;13.526;2022-08-21T00:03:32;5.77;;;2.47;;
17363;SDS011;8799;43.594;13.526;2022-08-21T00:06:00;5.80;;;2.67;;
17363;SDS011;8799;43.594;13.526;2022-08-21T00:08:28;6.13;;;2.70;;
17363;SDS011;8799;43.594;13.526;2022-08-21T00:10:56;5.20;;;2.37;;
17363;SDS011;8799;43.594;13.526;2022-08-21T00:13:25;5.77;;;2.47;;
17363;SDS011;8799;43.594;13.526;2022-08-21T00:15:53;5.63;;;2.63;;
17363;SDS011;8799;43.594;13.526;2022-08-21T00:18:21;5.33;;;2.80;;
17363;SDS011;8799;43.594;13.526;2022-08-21T00:20:50;4.03;;;2.67;;
17363;SDS011;8799;43.594;13.526;2022-08-21T00:23:18;5.30;;;2.30;;
17363;SDS011;8799;43.594;13.526;2022-08-21T00:25:46;5.33;;;2.97;;
17363;SDS011;8799;43.594;13.526;2022-08-21T00:28:15;6.13;;;2.60;;
17363;SDS011;8799;43.594;13.526;2022-08-21T00:30:43;7.87;;;3.17;;
17363;SDS011;8799;43.594;13.526;2022-08-21T00:33:11;7.60;;;2.93;;
17363;SDS011;8799;43.594;13.526;2022-08-21T00:35:40;6.03;;;2.70;;
17363;SDS011;8799;43.594;13.526;2022-08-21T00:38:10;8.10;;;2.97;;
17363;SDS011;8799;43.594;13.526;2022-08-21T00:40:40;4.53;;;2.80;;
17363;SDS011;8799;43.594;13.526;2022-08-21T00:43:11;9.57;;;2.73;;
17363;SDS011;8799;43.594;13.526;2022-08-21T00:45:40;6.47;;;3.10;;
17363;SDS011;8799;43.594;13.526;2022-08-21T00:48:08;7.03;;;2.80;;
17363;SDS011;8799;43.594;13.526;2022-08-21T00:50:37;4.13;;;2.73;;
17363;SDS011;8799;43.594;13.526;2022-08-21T00:53:07;4.93;;;2.33;;
17363;SDS011;8799;43.594;13.526;2022-08-21T00:55:38;6.57;;;2.60;;
17363;SDS011;8799;43.594;13.526;2022-08-21T00:58:08;8.87;;;2.57;;
17363;SDS011;8799;43.594;13.526;2022-08-21T01:00:40;6.77;;;2.80;;
17363;SDS011;8799;43.594;13.526;2022-08-21T01:03:11;9.57;;;2.80;;
17363;SDS011;8799;43.594;13.526;2022-08-21T01:05:41;6.40;;;2.87;;
17363;SDS011;8799;43.594;13.526;2022-08-21T01:08:09;7.30;;;3.10;;
17363;SDS011;8799;43.594;13.526;2022-08-21T01:10:39;6.80;;;3.03;;
17363;SDS011;8799;43.594;13.526;2022-08-21T01:13:08;6.00;;;2.60;;
17363;SDS011;8799;43.594;13.526;2022-08-21T01:15:39;7.40;;;2.93;;
17363;SDS011;8799;43.594;13.526;2022-08-21T01:18:11;6.07;;;2.70;;
17363;SDS011;8799;43.594;13.526;2022-08-21T01:20:41;5.07;;;2.50;;
17363;SDS011;8799;43.594;13.526;2022-08-21T01:23:13;5.33;;;2.30;;
17363;SDS011;8799;43.594;13.526;2022-08-21T01:25:41;5.13;;;2.70;;
17363;SDS011;8799;43.594;13.526;2022-08-21T01:28:11;8.63;;;2.33;;
17363;SDS011;8799;43.594;13.526;2022-08-21T01:30:40;5.80;;;2.97;;
17363;SDS011;8799;43.594;13.526;2022-08-21T01:33:10;6.27;;;2.67;;
17363;SDS011;8799;43.594;13.526;2022-08-21T01:35:38;5.27;;;2.60;;
17363;SDS011;8799;43.594;13.526;2022-08-21T01:38:06;8.30;;;2.53;;
17363;SDS011;8799;43.594;13.526;2022-08-21T01:40:36;3.80;;;2.63;;
17363;SDS011;8799;43.594;13.526;2022-08-21T01:43:04;5.33;;;2.60;;
17363;SDS011;8799;43.594;13.526;2022-08-21T01:45:31;9.30;;;2.37;;
17363;SDS011;8799;43.594;13.526;2022-08-21T01:47:59;4.90;;;2.47;;
17363;SDS011;8799;43.594;13.526;2022-08-21T01:50:27;5.00;;;2.17;;
17363;SDS011;8799;43.594;13.526;2022-08-21T01:52:58;3.07;;;2.00;;
17363;SDS011;8799;43.594;13.526;2022-08-21T01:55:27;5.57;;;2.10;;
17363;SDS011;8799;43.594;13.526;2022-08-21T01:57:56;3.63;;;2.00;;
17363;SDS011;8799;43.594;13.526;2022-08-21T02:00:26;4.43;;;2.53;;
17363;SDS011;8799;43.594;13.526;2022-08-21T02:02:53;4.40;;;2.10;;
17363;SDS011;8799;43.594;13.526;2022-08-21T02:05:21;5.40;;;2.20;;
17363;SDS011;8799;43.594;13.526;2022-08-21T02:07:50;5.13;;;2.30;;
17363;SDS011;8799;43.594;13.526;2022-08-21T02:10:20;2.90;;;1.87;;
17363;SDS011;8799;43.594;13.526;2022-08-21T02:12:50;4.77;;;2.00;;
17363;SDS011;8799;43.594;13.526;2022-08-21T02:15:19;4.93;;;2.57;;
17363;SDS011;8799;43.594;13.526;2022-08-21T02:17:48;5.30;;;2.10;;
17363;SDS011;8799;43.594;13.526;2022-08-21T02:20:18;6.23;;;2.40;;
17363;SDS011;8799;43.594;13.526;2022-08-21T02:22:49;2.93;;;2.20;;
17363;SDS011;8799;43.594;13.526;2022-08-21T02:25:19;4.40;;;2.20;;
17363;SDS011;8799;43.594;13.526;2022-08-21T02:27:48;5.90;;;2.33;;
17363;SDS011;8799;43.594;13.526;2022-08-21T02:30:18;5.53;;;2.27;;
17363;SDS011;8799;43.594;13.526;2022-08-21T02:32:49;4.50;;;1.93;;
17363;SDS011;8799;43.594;13.526;2022-08-21T02:35:18;4.93;;;2.03;;
17363;SDS011;8799;43.594;13.526;2022-08-21T02:37:47;4.80;;;2.17;;
17363;SDS011;8799;43.594;13.526;2022-08-21T02:40:16;3.43;;;2.17;;
17363;SDS011;8799;43.594;13.526;2022-08-21T02:42:45;5.03;;;2.27;;
17363;SDS011;8799;43.594;13.526;2022-08-21T02:45:13;3.13;;;2.10;;
17363;SDS011;8799;43.594;13.526;2022-08-21T02:47:48;4.77;;;2.13;;
17363;SDS011;8799;43.594;13.526;2022-08-21T02:50:18;3.27;;;2.30;;
17363;SDS011;8799;43.594;13.526;2022-08-21T02:52:48;3.73;;;2.20;;
17363;SDS011;8799;43.594;13.526;2022-08-21T02:55:16;6.10;;;2.10;;
17363;SDS011;8799;43.594;13.526;2022-08-21T02:57:43;2.63;;;2.20;;
17363;SDS011;8799;43.594;13.526;2022-08-21T03:00:11;4.77;;;1.90;;
17363;SDS011;8799;43.594;13.526;2022-08-21T03:02:39;4.27;;;2.20;;
17363;SDS011;8799;43.594;13.526;2022-08-21T03:05:09;6.70;;;2.23;;
17363;SDS011;8799;43.594;13.526;2022-08-21T03:07:36;2.93;;;2.10;;
17363;SDS011;8799;43.594;13.526;2022-08-21T03:10:05;4.27;;;2.23;;
17363;SDS011;8799;43.594;13.526;2022-08-21T03:12:33;6.20;;;2.53;;
17363;SDS011;8799;43.594;13.526;2022-08-21T03:15:01;5.23;;;2.20;;
17363;SDS011;8799;43.594;13.526;2022-08-21T03:17:30;5.03;;;2.00;;
17363;SDS011;8799;43.594;13.526;2022-08-21T03:19:58;5.80;;;2.53;;
17363;SDS011;8799;43.594;13.526;2022-08-21T03:22:27;5.47;;;2.70;;
17363;SDS011;8799;43.594;13.526;2022-08-21T03:24:55;4.67;;;2.20;;
17363;SDS011;8799;43.594;13.526;2022-08-21T03:27:23;4.20;;;2.30;;
17363;SDS011;8799;43.594;13.526;2022-08-21T03:29:52;5.87;;;2.20;;
17363;SDS011;8799;43.594;13.526;2022-08-21T03:32:20;7.57;;;2.40;;
17363;SDS011;8799;43.594;13.526;2022-08-21T03:34:48;5.13;;;2.17;;
17363;SDS011;8799;43.594;13.526;2022-08-21T03:37:16;7.67;;;2.43;;
17363;SDS011;8799;43.594;13.526;2022-08-21T03:39:46;8.23;;;2.10;;
17363;SDS011;8799;43.594;13.526;2022-08-21T03:42:13;5.93;;;2.40;;
17363;SDS011;8799;43.594;13.526;2022-08-21T03:44:41;5.50;;;2.30;;
17363;SDS011;8799;43.594;13.526;2022-08-21T03:47:10;5.17;;;2.57;;
17363;SDS011;8799;43.594;13.526;2022-08-21T03:49:39;6.80;;;2.60;;
17363;SDS011;8799;43.594;13.526;2022-08-21T03:52:07;6.83;;;2.60;;
17363;SDS011;8799;43.594;13.526;2022-08-21T03:54:36;5.77;;;2.57;;
17363;SDS011;8799;43.594;13.526;2022-08-21T03:57:06;4.40;;;2.33;;
17363;SDS011;8799;43.594;13.526;2022-08-21T03:59:33;6.23;;;2.63;;
17363;SDS011;8799;43.594;13.526;2022-08-21T04:02:03;6.00;;;2.70;;
17363;SDS011;8799;43.594;13.526;2022-08-21T04:04:31;5.73;;;2.27;;
17363;SDS011;8799;43.594;13.526;2022-08-21T04:07:00;5.77;;;2.20;;
17363;SDS011;8799;43.594;13.526;2022-08-21T04:09:29;5.13;;;2.17;;
17363;SDS011;8799;43.594;13.526;2022-08-21T04:11:57;3.90;;;2.30;;
17363;SDS011;8799;43.594;13.526;2022-08-21T04:14:27;4.47;;;1.90;;
17363;SDS011;8799;43.594;13.526;2022-08-21T04:16:55;4.27;;;2.20;;
17363;SDS011;8799;43.594;13.526;2022-08-21T04:19:22;4.80;;;1.97;;
17363;SDS011;8799;43.594;13.526;2022-08-21T04:21:50;4.47;;;2.23;;
17363;SDS011;8799;43.594;13.526;2022-08-21T04:24:18;3.70;;;2.07;;
17363;SDS011;8799;43.594;13.526;2022-08-21T04:26:46;5.73;;;2.10;;
17363;SDS011;8799;43.594;13.526;2022-08-21T04:29:14;5.80;;;2.20;;
17363;SDS011;8799;43.594;13.526;2022-08-21T04:31:44;2.80;;;1.93;;
17363;SDS011;8799;43.594;13.526;2022-08-21T04:34:12;7.27;;;2.30;;
17363;SDS011;8799;43.594;13.526;2022-08-21T04:36:39;5.73;;;2.13;;
17363;SDS011;8799;43.594;13.526;2022-08-21T04:39:07;3.10;;;1.90;;
17363;SDS011;8799;43.594;13.526;2022-08-21T04:41:34;2.60;;;2.07;;
17363;SDS011;8799;43.594;13.526;2022-08-21T04:44:02;5.63;;;2.47;;
17363;SDS011;8799;43.594;13.526;2022-08-21T04:46:30;8.33;;;2.67;;
17363;SDS011;8799;43.594;13.526;2022-08-21T04:49:00;4.17;;;2.20;;
17363;SDS011;8799;43.594;13.526;2022-08-21T04:51:28;3.30;;;2.07;;
17363;SDS011;8799;43.594;13.526;2022-08-21T04:53:59;4.33;;;2.20;;
17363;SDS011;8799;43.594;13.526;2022-08-21T04:56:31;4.10;;;2.00;;
17363;SDS011;8799;43.594;13.526;2022-08-21T04:59:03;4.77;;;2.30;;
17363;SDS011;8799;43.594;13.526;2022-08-21T05:01:34;4.07;;;2.10;;
17363;SDS011;8799;43.594;13.526;2022-08-21T05:04:09;3.17;;;1.93;;
17363;SDS011;8799;43.594;13.526;2022-08-21T05:06:38;3.73;;;2.37;;
17363;SDS011;8799;43.594;13.526;2022-08-21T05:09:08;4.47;;;2.33;;
17363;SDS011;8799;43.594;13.526;2022-08-21T05:11:40;5.50;;;2.00;;
17363;SDS011;8799;43.594;13.526;2022-08-21T05:14:09;5.37;;;2.00;;
17363;SDS011;8799;43.594;13.526;2022-08-21T05:16:37;5.77;;;1.90;;
17363;SDS011;8799;43.594;13.526;2022-08-21T05:19:08;3.73;;;2.00;;
17363;SDS011;8799;43.594;13.526;2022-08-21T05:21:38;11.60;;;1.90;;
17363;SDS011;8799;43.594;13.526;2022-08-21T05:24:07;8.70;;;1.90;;
17363;SDS011;8799;43.594;13.526;2022-08-21T05:26:35;6.03;;;2.00;;
17363;SDS011;8799;43.594;13.526;2022-08-21T05:29:02;7.23;;;1.90;;
17363;SDS011;8799;43.594;13.526;2022-08-21T05:31:31;4.77;;;1.90;;
17363;SDS011;8799;43.594;13.526;2022-08-21T05:33:59;7.70;;;1.90;;
17363;SDS011;8799;43.594;13.526;2022-08-21T05:36:28;4.17;;;2.00;;
17363;SDS011;8799;43.594;13.526;2022-08-21T05:38:56;9.97;;;2.20;;
17363;SDS011;8799;43.594;13.526;2022-08-21T05:41:25;7.07;;;2.40;;
17363;SDS011;8799;43.594;13.526;2022-08-21T05:43:53;4.67;;;2.30;;
17363;SDS011;8799;43.594;13.526;2022-08-21T05:46:21;5.47;;;1.80;;
17363;SDS011;8799;43.594;13.526;2022-08-21T05:48:49;8.67;;;2.20;;
17363;SDS011;8799;43.594;13.526;2022-08-21T05:51:17;5.97;;;1.90;;
17363;SDS011;8799;43.594;13.526;2022-08-21T05:53:46;5.33;;;2.13;;
17363;SDS011;8799;43.594;13.526;2022-08-21T05:56:15;8.90;;;2.40;;
17363;SDS011;8799;43.594;13.526;2022-08-21T05:58:43;3.30;;;1.80;;
17363;SDS011;8799;43.594;13.526;2022-08-21T06:01:10;5.83;;;2.07;;
17363;SDS011;8799;43.594;13.526;2022-08-21T06:03:40;4.03;;;1.70;;
17363;SDS011;8799;43.594;13.526;2022-08-21T06:06:09;6.90;;;2.60;;
17363;SDS011;8799;43.594;13.526;2022-08-21T06:08:36;6.63;;;2.00;;
17363;SDS011;8799;43.594;13.526;2022-08-21T06:11:07;9.73;;;2.80;;
17363;SDS011;8799;43.594;13.526;2022-08-21T06:13:35;9.03;;;1.97;;
17363;SDS011;8799;43.594;13.526;2022-08-21T06:16:05;7.87;;;2.03;;
17363;SDS011;8799;43.594;13.526;2022-08-21T06:18:35;6.30;;;2.37;;
17363;SDS011;8799;43.594;13.526;2022-08-21T06:21:04;10.00;;;2.13;;
17363;SDS011;8799;43.594;13.526;2022-08-21T06:23:33;4.83;;;2.00;;
17363;SDS011;8799;43.594;13.526;2022-08-21T06:26:01;5.53;;;2.00;;
17363;SDS011;8799;43.594;13.526;2022-08-21T06:28:31;5.30;;;2.33;;
17363;SDS011;8799;43.594;13.526;2022-08-21T06:31:00;4.57;;;1.87;;
17363;SDS011;8799;43.594;13.526;2022-08-21T06:33:27;3.20;;;2.23;;
17363;SDS011;8799;43.594;13.526;2022-08-21T06:35:59;5.27;;;2.20;;
17363;SDS011;8799;43.594;13.526;2022-08-21T06:38:30;3.33;;;1.70;;
17363;SDS011;8799;43.594;13.526;2022-08-21T06:40:57;4.93;;;1.93;;
17363;SDS011;8799;43.594;13.526;2022-08-21T06:43:26;5.43;;;1.87;;
17363;SDS011;8799;43.594;13.526;2022-08-21T06:45:56;6.90;;;2.03;;
17363;SDS011;8799;43.594;13.526;2022-08-21T06:48:24;4.50;;;1.97;;
17363;SDS011;8799;43.594;13.526;2022-08-21T06:50:52;6.37;;;2.00;;
17363;SDS011;8799;43.594;13.526;2022-08-21T06:53:21;2.50;;;1.77;;
17363;SDS011;8799;43.594;13.526;2022-08-21T06:55:49;5.37;;;2.07;;
17363;SDS011;8799;43.594;13.526;2022-08-21T06:58:18;4.67;;;2.27;;
17363;SDS011;8799;43.594;13.526;2022-08-21T07:00:48;3.20;;;2.10;;
17363;SDS011;8799;43.594;13.526;2022-08-21T07:03:20;3.87;;;1.93;;
17363;SDS011;8799;43.594;13.526;2022-08-21T07:05:50;4.73;;;2.30;;
17363;SDS011;8799;43.594;13.526;2022-08-21T07:08:18;4.90;;;2.03;;
17363;SDS011;8799;43.594;13.526;2022-08-21T07:10:46;3.47;;;1.90;;
17363;SDS011;8799;43.594;13.526;2022-08-21T07:13:15;4.57;;;2.20;;
17363;SDS011;8799;43.594;13.526;2022-08-21T07:15:44;6.70;;;2.43;;
17363;SDS011;8799;43.594;13.526;2022-08-21T07:18:12;3.10;;;2.07;;
17363;SDS011;8799;43.594;13.526;2022-08-21T07:20:41;3.43;;;2.00;;
17363;SDS011;8799;43.594;13.526;2022-08-21T07:23:11;3.93;;;2.00;;
17363;SDS011;8799;43.594;13.526;2022-08-21T07:25:55;4.43;;;2.23;;
17363;SDS011;8799;43.594;13.526;2022-08-21T07:28:24;7.73;;;2.57;;
17363;SDS011;8799;43.594;13.526;2022-08-21T07:30:51;3.87;;;2.40;;
17363;SDS011;8799;43.594;13.526;2022-08-21T07:33:20;5.40;;;2.50;;
17363;SDS011;8799;43.594;13.526;2022-08-21T07:35:49;4.30;;;2.40;;
17363;SDS011;8799;43.594;13.526;2022-08-21T07:38:20;4.30;;;2.17;;
17363;SDS011;8799;43.594;13.526;2022-08-21T07:40:47;3.67;;;2.30;;
17363;SDS011;8799;43.594;13.526;2022-08-21T07:43:17;5.73;;;2.47;;
17363;SDS011;8799;43.594;13.526;2022-08-21T07:45:46;4.33;;;2.07;;
17363;SDS011;8799;43.594;13.526;2022-08-21T07:48:15;3.40;;;2.00;;
17363;SDS011;8799;43.594;13.526;2022-08-21T07:50:43;3.47;;;1.93;;
17363;SDS011;8799;43.594;13.526;2022-08-21T07:53:12;3.07;;;2.03;;
17363;SDS011;8799;43.594;13.526;2022-08-21T07:55:40;4.20;;;2.10;;
17363;SDS011;8799;43.594;13.526;2022-08-21T07:58:08;7.87;;;2.20;;
17363;SDS011;8799;43.594;13.526;2022-08-21T08:00:37;4.10;;;1.70;;
17363;SDS011;8799;43.594;13.526;2022-08-21T08:03:04;2.53;;;1.80;;
17363;SDS011;8799;43.594;13.526;2022-08-21T08:05:31;2.97;;;1.83;;
17363;SDS011;8799;43.594;13.526;2022-08-21T08:08:02;3.37;;;2.00;;
17363;SDS011;8799;43.594;13.526;2022-08-21T08:10:31;6.10;;;2.10;;
17363;SDS011;8799;43.594;13.526;2022-08-21T08:13:00;4.07;;;2.00;;
17363;SDS011;8799;43.594;13.526;2022-08-21T08:15:28;5.83;;;2.00;;
17363;SDS011;8799;43.594;13.526;2022-08-21T08:17:55;5.87;;;2.17;;
17363;SDS011;8799;43.594;13.526;2022-08-21T08:20:24;4.87;;;2.00;;
17363;SDS011;8799;43.594;13.526;2022-08-21T08:22:53;4.87;;;2.00;;
17363;SDS011;8799;43.594;13.526;2022-08-21T08:25:22;4.77;;;2.00;;
17363;SDS011;8799;43.594;13.526;2022-08-21T08:27:52;3.83;;;1.90;;
17363;SDS011;8799;43.594;13.526;2022-08-21T08:30:20;1.73;;;1.60;;
17363;SDS011;8799;43.594;13.526;2022-08-21T08:32:49;3.43;;;1.63;;
17363;SDS011;8799;43.594;13.526;2022-08-21T08:35:17;4.03;;;1.70;;
17363;SDS011;8799;43.594;13.526;2022-08-21T08:37:45;3.63;;;1.67;;
17363;SDS011;8799;43.594;13.526;2022-08-21T08:40:14;4.63;;;1.30;;
17363;SDS011;8799;43.594;13.526;2022-08-21T08:42:48;2.90;;;1.43;;
17363;SDS011;8799;43.594;13.526;2022-08-21T08:45:19;2.77;;;1.53;;
17363;SDS011;8799;43.594;13.526;2022-08-21T08:47:50;1.47;;;1.20;;
17363;SDS011;8799;43.594;13.526;2022-08-21T08:50:38;1.97;;;0.90;;
17363;SDS011;8799;43.594;13.526;2022-08-21T08:53:21;1.00;;;0.97;;
17363;SDS011;8799;43.594;13.526;2022-08-21T08:55:55;1.37;;;0.90;;
17363;SDS011;8799;43.594;13.526;2022-08-21T08:58:26;0.83;;;0.83;;
17363;SDS011;8799;43.594;13.526;2022-08-21T09:00:59;1.60;;;1.20;;
17363;SDS011;8799;43.594;13.526;2022-08-21T09:03:27;0.83;;;0.80;;
17363;SDS011;8799;43.594;13.526;2022-08-21T09:05:55;3.20;;;0.93;;
17363;SDS011;8799;43.594;13.526;2022-08-21T09:08:40;1.00;;;1.00;;
17363;SDS011;8799;43.594;13.526;2022-08-21T09:11:20;1.10;;;0.90;;
17363;SDS011;8799;43.594;13.526;2022-08-21T09:13:57;2.17;;;1.13;;
17363;SDS011;8799;43.594;13.526;2022-08-21T09:16:39;0.80;;;0.80;;
17363;SDS011;8799;43.594;13.526;2022-08-21T09:19:23;1.63;;;0.80;;
17363;SDS011;8799;43.594;13.526;2022-08-21T09:22:00;0.70;;;0.70;;
17363;SDS011;8799;43.594;13.526;2022-08-21T09:24:37;0.60;;;0.60;;
17363;SDS011;8799;43.594;13.526;2022-08-21T09:27:14;0.83;;;0.73;;
17363;SDS011;8799;43.594;13.526;2022-08-21T09:29:45;0.80;;;0.80;;
17363;SDS011;8799;43.594;13.526;2022-08-21T09:32:18;0.90;;;0.80;;
17363;SDS011;8799;43.594;13.526;2022-08-21T09:34:57;0.80;;;0.60;;
17363;SDS011;8799;43.594;13.526;2022-08-21T09:37:27;0.60;;;0.60;;
17363;SDS011;8799;43.594;13.526;2022-08-21T09:39:57;0.60;;;0.50;;
17363;SDS011;8799;43.594;13.526;2022-08-21T09:42:26;0.60;;;0.60;;
17363;SDS011;8799;43.594;13.526;2022-08-21T09:45:05;1.43;;;0.80;;
17363;SDS011;8799;43.594;13.526;2022-08-21T09:47:38;0.60;;;0.60;;
17363;SDS011;8799;43.594;13.526;2022-08-21T09:50:12;4.70;;;1.20;;
17363;SDS011;8799;43.594;13.526;2022-08-21T09:52:46;0.80;;;0.80;;
17363;SDS011;8799;43.594;13.526;2022-08-21T09:55:20;0.60;;;0.60;;
17363;SDS011;8799;43.594;13.526;2022-08-21T09:58:10;1.10;;;1.00;;
17363;SDS011;8799;43.594;13.526;2022-08-21T10:00:39;0.80;;;0.80;;
17363;SDS011;8799;43.594;13.526;2022-08-21T10:03:22;2.47;;;0.90;;
17363;SDS011;8799;43.594;13.526;2022-08-21T10:05:51;1.33;;;1.00;;
17363;SDS011;8799;43.594;13.526;2022-08-21T10:08:20;1.77;;;1.10;;
17363;SDS011;8799;43.594;13.526;2022-08-21T10:10:54;2.33;;;1.03;;
17363;SDS011;8799;43.594;13.526;2022-08-21T10:13:26;1.40;;;0.80;;
17363;SDS011;8799;43.594;13.526;2022-08-21T10:16:11;0.70;;;0.70;;
17363;SDS011;8799;43.594;13.526;2022-08-21T10:18:56;1.77;;;1.00;;
17363;SDS011;8799;43.594;13.526;2022-08-21T10:21:34;1.53;;;0.90;;
17363;SDS011;8799;43.594;13.526;2022-08-21T10:24:18;2.13;;;1.00;;
17363;SDS011;8799;43.594;13.526;2022-08-21T10:26:54;0.97;;;0.97;;
17363;SDS011;8799;43.594;13.526;2022-08-21T10:29:35;2.17;;;0.93;;
17363;SDS011;8799;43.594;13.526;2022-08-21T10:32:14;2.53;;;0.90;;
17363;SDS011;8799;43.594;13.526;2022-08-21T10:35:05;1.57;;;1.00;;
17363;SDS011;8799;43.594;13.526;2022-08-21T10:37:44;2.80;;;0.80;;
17363;SDS011;8799;43.594;13.526;2022-08-21T10:40:25;0.87;;;0.87;;
17363;SDS011;8799;43.594;13.526;2022-08-21T10:43:00;0.80;;;0.80;;
17363;SDS011;8799;43.594;13.526;2022-08-21T10:45:42;0.80;;;0.80;;
17363;SDS011;8799;43.594;13.526;2022-08-21T10:48:20;0.70;;;0.70;;
17363;SDS011;8799;43.594;13.526;2022-08-21T10:50:58;0.70;;;0.70;;
17363;SDS011;8799;43.594;13.526;2022-08-21T10:53:36;0.80;;;0.80;;
17363;SDS011;8799;43.594;13.526;2022-08-21T10:56:16;2.00;;;0.77;;
17363;SDS011;8799;43.594;13.526;2022-08-21T10:58:49;1.07;;;0.70;;
17363;SDS011;8799;43.594;13.526;2022-08-21T11:01:27;0.70;;;0.70;;
17363;SDS011;8799;43.594;13.526;2022-08-21T11:04:03;0.50;;;0.50;;
17363;SDS011;8799;43.594;13.526;2022-08-21T11:06:40;0.53;;;0.53;;
17363;SDS011;8799;43.594;13.526;2022-08-21T11:09:12;0.80;;;0.60;;
17363;SDS011;8799;43.594;13.526;2022-08-21T11:11:45;0.70;;;0.60;;
17363;SDS011;8799;43.594;13.526;2022-08-21T11:14:21;1.00;;;0.90;;
17363;SDS011;8799;43.594;13.526;2022-08-21T11:17:02;0.40;;;0.40;;
17363;SDS011;8799;43.594;13.526;2022-08-21T11:19:36;0.73;;;0.50;;
17363;SDS011;8799;43.594;13.526;2022-08-21T11:22:13;0.80;;;0.60;;
17363;SDS011;8799;43.594;13.526;2022-08-21T11:24:47;0.73;;;0.63;;
17363;SDS011;8799;43.594;13.526;2022-08-21T11:27:22;0.90;;;0.70;;
17363;SDS011;8799;43.594;13.526;2022-08-21T11:29:56;1.03;;;0.80;;
17363;SDS011;8799;43.594;13.526;2022-08-21T11:35:34;2.63;;;0.80;;
17363;SDS011;8799;43.594;13.526;2022-08-21T11:38:18;1.33;;;0.90;;
17363;SDS011;8799;43.594;13.526;2022-08-21T11:41:06;1.03;;;0.97;;
17363;SDS011;8799;43.594;13.526;2022-08-21T11:43:44;0.80;;;0.80;;
17363;SDS011;8799;43.594;13.526;2022-08-21T11:46:18;1.03;;;0.90;;
17363;SDS011;8799;43.594;13.526;2022-08-21T11:49:00;0.60;;;0.60;;
17363;SDS011;8799;43.594;13.526;2022-08-21T11:51:41;0.90;;;0.70;;
17363;SDS011;8799;43.594;13.526;2022-08-21T11:54:20;0.80;;;0.80;;
17363;SDS011;8799;43.594;13.526;2022-08-21T11:56:55;0.93;;;0.70;;
17363;SDS011;8799;43.594;13.526;2022-08-21T11:59:27;1.07;;;0.93;;
17363;SDS011;8799;43.594;13.526;2022-08-21T12:02:02;0.97;;;0.80;;
17363;SDS011;8799;43.594;13.526;2022-08-21T12:04:41;1.53;;;0.80;;
17363;SDS011;8799;43.594;13.526;2022-08-21T12:07:13;1.20;;;1.10;;
17363;SDS011;8799;43.594;13.526;2022-08-21T12:09:53;1.17;;;1.07;;
17363;SDS011;8799;43.594;13.526;2022-08-21T12:12:23;0.80;;;0.80;;
17363;SDS011;8799;43.594;13.526;2022-08-21T12:15:04;1.23;;;0.70;;
17363;SDS011;8799;43.594;13.526;2022-08-21T12:17:55;0.80;;;0.80;;
17363;SDS011;8799;43.594;13.526;2022-08-21T12:20:36;3.33;;;0.90;;
17363;SDS011;8799;43.594;13.526;2022-08-21T12:23:15;0.73;;;0.73;;
17363;SDS011;8799;43.594;13.526;2022-08-21T12:26:00;0.70;;;0.70;;
17363;SDS011;8799;43.594;13.526;2022-08-21T12:28:40;1.77;;;0.90;;
17363;SDS011;8799;43.594;13.526;2022-08-21T12:31:17;1.10;;;0.77;;
17363;SDS011;8799;43.594;13.526;2022-08-21T12:33:54;1.40;;;0.90;;
17363;SDS011;8799;43.594;13.526;2022-08-21T12:36:27;2.30;;;0.90;;
17363;SDS011;8799;43.594;13.526;2022-08-21T12:39:10;0.60;;;0.60;;
17363;SDS011;8799;43.594;13.526;2022-08-21T12:41:45;3.50;;;0.70;;
17363;SDS011;8799;43.594;13.526;2022-08-21T12:44:24;0.87;;;0.83;;
17363;SDS011;8799;43.594;13.526;2022-08-21T12:47:00;1.57;;;0.70;;
17363;SDS011;8799;43.594;13.526;2022-08-21T12:49:32;0.70;;;0.70;;
17363;SDS011;8799;43.594;13.526;2022-08-21T12:52:06;2.30;;;1.00;;
17363;SDS011;8799;43.594;13.526;2022-08-21T12:54:40;0.87;;;0.87;;
17363;SDS011;8799;43.594;13.526;2022-08-21T12:57:17;1.40;;;1.00;;
17363;SDS011;8799;43.594;13.526;2022-08-21T12:59:50;1.10;;;0.87;;
17363;SDS011;8799;43.594;13.526;2022-08-21T13:02:19;0.97;;;0.90;;
17363;SDS011;8799;43.594;13.526;2022-08-21T13:04:50;1.70;;;0.80;;
17363;SDS011;8799;43.594;13.526;2022-08-21T13:07:22;1.10;;;1.00;;
17363;SDS011;8799;43.594;13.526;2022-08-21T13:09:55;0.90;;;0.70;;
17363;SDS011;8799;43.594;13.526;2022-08-21T13:12:29;0.83;;;0.83;;
17363;SDS011;8799;43.594;13.526;2022-08-21T13:14:59;1.03;;;0.90;;
17363;SDS011;8799;43.594;13.526;2022-08-21T13:17:30;1.07;;;0.97;;
17363;SDS011;8799;43.594;13.526;2022-08-21T13:20:02;1.10;;;0.90;;
17363;SDS011;8799;43.594;13.526;2022-08-21T13:22:39;0.87;;;0.87;;
17363;SDS011;8799;43.594;13.526;2022-08-21T13:25:09;0.80;;;0.80;;
17363;SDS011;8799;43.594;13.526;2022-08-21T13:27:40;0.70;;;0.70;;
17363;SDS011;8799;43.594;13.526;2022-08-21T13:30:09;0.93;;;0.80;;
17363;SDS011;8799;43.594;13.526;2022-08-21T13:32:40;0.83;;;0.73;;
17363;SDS011;8799;43.594;13.526;2022-08-21T13:35:10;0.73;;;0.73;;
17363;SDS011;8799;43.594;13.526;2022-08-21T13:37:45;0.60;;;0.60;;
17363;SDS011;8799;43.594;13.526;2022-08-21T13:40:17;0.70;;;0.70;;
17363;SDS011;8799;43.594;13.526;2022-08-21T13:42:51;0.87;;;0.60;;
17363;SDS011;8799;43.594;13.526;2022-08-21T13:45:25;0.80;;;0.80;;
17363;SDS011;8799;43.594;13.526;2022-08-21T13:47:54;0.90;;;0.90;;
17363;SDS011;8799;43.594;13.526;2022-08-21T13:50:23;0.40;;;0.40;;
17363;SDS011;8799;43.594;13.526;2022-08-21T13:52:56;0.77;;;0.77;;
17363;SDS011;8799;43.594;13.526;2022-08-21T13:55:33;0.63;;;0.63;;
17363;SDS011;8799;43.594;13.526;2022-08-21T13:58:04;0.80;;;0.80;;
17363;SDS011;8799;43.594;13.526;2022-08-21T14:00:34;1.60;;;0.80;;
17363;SDS011;8799;43.594;13.526;2022-08-21T14:03:10;2.57;;;1.00;;
17363;SDS011;8799;43.594;13.526;2022-08-21T14:05:49;1.03;;;0.77;;
17363;SDS011;8799;43.594;13.526;2022-08-21T14:08:21;1.23;;;0.97;;
17363;SDS011;8799;43.594;13.526;2022-08-21T14:10:53;0.97;;;0.90;;
17363;SDS011;8799;43.594;13.526;2022-08-21T14:16:15;1.13;;;0.70;;
17363;SDS011;8799;43.594;13.526;2022-08-21T14:18:45;1.90;;;0.83;;
17363;SDS011;8799;43.594;13.526;2022-08-21T14:21:23;0.97;;;0.67;;
17363;SDS011;8799;43.594;13.526;2022-08-21T14:24:05;1.23;;;0.87;;
17363;SDS011;8799;43.594;13.526;2022-08-21T14:26:37;0.93;;;0.93;;
17363;SDS011;8799;43.594;13.526;2022-08-21T14:29:15;0.63;;;0.60;;
17363;SDS011;8799;43.594;13.526;2022-08-21T14:31:48;1.00;;;0.90;;
17363;SDS011;8799;43.594;13.526;2022-08-21T14:34:18;0.80;;;0.80;;
17363;SDS011;8799;43.594;13.526;2022-08-21T14:36:48;0.80;;;0.80;;
17363;SDS011;8799;43.594;13.526;2022-08-21T14:39:16;2.50;;;1.07;;
17363;SDS011;8799;43.594;13.526;2022-08-21T14:42:11;1.30;;;0.90;;
17363;SDS011;8799;43.594;13.526;2022-08-21T14:44:41;2.43;;;0.90;;
17363;SDS011;8799;43.594;13.526;2022-08-21T14:47:11;1.10;;;1.00;;
17363;SDS011;8799;43.594;13.526;2022-08-21T14:49:39;1.20;;;1.10;;
17363;SDS011;8799;43.594;13.526;2022-08-21T14:52:07;0.90;;;0.90;;
17363;SDS011;8799;43.594;13.526;2022-08-21T14:54:35;0.90;;;0.90;;
17363;SDS011;8799;43.594;13.526;2022-08-21T14:57:05;0.80;;;0.80;;
17363;SDS011;8799;43.594;13.526;2022-08-21T14:59:35;1.40;;;0.80;;
17363;SDS011;8799;43.594;13.526;2022-08-21T15:02:05;0.87;;;0.80;;
17363;SDS011;8799;43.594;13.526;2022-08-21T15:04:37;0.97;;;0.60;;
17363;SDS011;8799;43.594;13.526;2022-08-21T15:07:06;1.00;;;1.00;;
17363;SDS011;8799;43.594;13.526;2022-08-21T15:09:35;1.00;;;0.90;;
17363;SDS011;8799;43.594;13.526;2022-08-21T15:12:03;0.73;;;0.73;;
17363;SDS011;8799;43.594;13.526;2022-08-21T15:14:33;0.70;;;0.70;;
17363;SDS011;8799;43.594;13.526;2022-08-21T15:17:06;0.63;;;0.63;;
17363;SDS011;8799;43.594;13.526;2022-08-21T15:19:35;0.93;;;0.93;;